• Join FlightAware (Why Join?)
  • Login
  • US Flag 
Rudolph Flight #1: Scheduled 
07:43PM EST


 

Airport Tracker/Info


-or-


 

Live Flight TrackerFlight Track Log ✈ FLG3729 ✈ 21-May-2013 ✈ KALB - KDTW

Flight Track Log - Related Links

Times and Time Zones

All times are in EDT time to prevent confusion due to time zone crossing. See the FLG3729 flight status page for this flight to view local times or setup timezone preferences in your user account.

Time Position Orientation Groundspeed Altitude Reporting Facility
EDT Latitude Longitude Course Direction KTS MPH feet Rate Location/Type
05:58AM 42.7236 -73.8081 304° West 162 186 1,300  Level Boston Center
05:59AM 42.7000 -73.8497 232° Southwest 204 235 3,100 1,620 Climbing Boston Center
06:00AM 42.7411 -73.9131 311° West 248 285 4,800 1,440 Climbing Boston Center
06:00AM 42.7492 -73.9272 308° West 256 295 5,000 2,040 Climbing Boston Center
06:01AM 42.8268 -74.2875 281° West  Level FlightAware Approximate
06:01AM 42.7981 -74.0050 311° West 285 328 7,400  Level Boston Center
06:02AM 42.8465 -74.4122 283° West  Level FlightAware Approximate
06:02AM 42.8492 -74.0883 310° West 285 328 10,100  Level Boston Center
06:03AM 42.8680 -74.5361 304° West  Level FlightAware Approximate
06:03AM 42.9019 -74.1747 310° West 288 331 11,000  Level Boston Center
06:04AM 42.9608 -74.2756 309° West 326 375 12,100 1,080 Climbing Boston Center
06:05AM 42.9900 -74.3986 288° West 331 381 13,200 1,200 Climbing Boston Center
06:06AM 43.0022 -74.5325 277° West 352 405 14,600 1,260 Climbing Boston Center
06:07AM 43.0186 -74.6636 280° West 352 405 15,800 1,200 Climbing Boston Center
06:08AM 43.0306 -74.7975 277° West 352 405 17,100 1,020 Climbing Boston Center
06:09AM 43.0300 -74.9197 270° West 352 405 17,900 900 Climbing Boston Center
06:10AM 43.0289 -75.0561 269° West 352 405 18,900 900 Climbing Boston Center
06:11AM 43.0275 -75.2067 269° West 357 411 19,700 780 Climbing Boston Center
06:12AM 43.0239 -75.3456 268° West 362 417 20,500 720 Climbing Boston Center
06:13AM 43.0244 -75.4878 270° West 367 422 21,200 660 Climbing Boston Center
06:14AM 43.0206 -75.6294 268° West 367 422 21,900 720 Climbing Boston Center
06:15AM 43.0208 -75.7717 270° West 367 422 22,700 540 Climbing Boston Center
06:16AM 43.0164 -75.9192 268° West 377 434 23,000 780 Climbing Boston Center
06:17AM 43.0139 -76.0667 269° West 389 448 24,300 1,200 Climbing Boston Center
06:19AM 43.0058 -76.3442 268° West 368 423 26,900 1,080 Climbing Cleveland Center
06:20AM 43.0044 -76.4833 269° West 363 418 27,700 540 Climbing Cleveland Center
06:21AM 43.0008 -76.6200 268° West 369 425 28,000 120 Climbing Cleveland Center
06:22AM 42.9939 -76.7878 267° West 382 440 28,000  Level Cleveland Center
06:23AM 42.9906 -76.9386 268° West 402 463 28,000  Level Cleveland Center
06:24AM 42.9850 -77.1006 267° West 415 478 28,000  Level Cleveland Center
06:25AM 42.9814 -77.2597 268° West 426 490 28,000  Level Cleveland Center
06:26AM 42.9756 -77.4219 267° West 426 490 28,000  Level Cleveland Center
06:27AM 42.9717 -77.5897 268° West 432 497 28,100  Climbing Cleveland Center
06:28AM 42.9656 -77.7572 267° West 442 509 28,000 -60 Descending Cleveland Center
06:29AM 42.9611 -77.9250 268° West 442 509 28,000  Level Cleveland Center
06:30AM 42.9522 -78.0897 266° West 442 509 28,000  Level Cleveland Center
06:31AM 42.9475 -78.2572 268° West 442 509 28,000  Level Cleveland Center
06:32AM 42.9403 -78.4250 267° West 442 509 28,000  Level Cleveland Center
06:33AM 42.9328 -78.5925 267° West 442 509 28,000  Level Cleveland Center
06:34AM 42.9147 -78.7603 262° West 447 514 28,000  Level Cleveland Center
06:35AM 42.8903 -78.9256 259° West 447 514 28,000  Level Cleveland Center
06:36AM 42.8653 -79.0906 258° West 447 514 28,000  Level Cleveland Center
06:37AM 42.8403 -79.2581 259° West 447 514 28,000  Level Cleveland Center
06:38AM 42.8192 -79.4197 260° West 447 514 28,000  Level Cleveland Center
06:39AM 42.7956 -79.5844 259° West 447 514 28,000  Level Cleveland Center
06:40AM 42.7697 -79.7489 258° West 447 514 28,000  Level Cleveland Center
06:41AM 42.7522 -79.9158 262° West 447 514 28,000  Level Cleveland Center
06:42AM 42.7383 -80.0856 264° West 452 520 28,000  Level Cleveland Center
06:43AM 42.7369 -80.2581 269° West 454 522 28,000 -120 Level Cleveland Center
06:44AM 42.7269 -80.4250 265° West 454 522 27,800 -600 Descending Cleveland Center
06:45AM 42.7186 -80.5972 266° West 459 528 26,800 -1,020 Descending Cleveland Center
06:46AM 42.7122 -80.7669 267° West 459 528 25,800 -960 Descending Cleveland Center
06:47AM 42.7056 -80.9108 266° West 447 514 24,900 -900 Descending Cleveland Center
06:48AM 42.6864 -81.0689 261° West 434 499 24,000 -480 Descending Cleveland Center
06:49AM 42.6689 -81.2242 261° West 429 494 24,000  Level Cleveland Center
06:50AM 42.6511 -81.3819 261° West 429 494 24,000  Level Cleveland Center
06:51AM 42.6314 -81.5397 260° West 429 494 24,000 -6,000 Level Cleveland Center
06:52AM 42.6133 -81.6947 261° West 419 482 12,000 -1,440 Descending Cleveland Center
06:53AM 42.5928 -81.8692 261° West 425 489 21,200 3,600 Climbing Cleveland Center
06:54AM 42.5742 -82.0239 261° West 425 489 19,200 -1,980 Descending Cleveland Center
06:55AM 42.5625 -82.1194 261° West 420 483 17,900 -2,100 Descending Cleveland Center
06:55AM 42.5556 -82.1700 259° West 420 483 17,100 -2,100 Descending Cleveland Center
06:56AM 42.5389 -82.3050 261° West 396 456 15,100 -1,980 Descending Cleveland Center
06:57AM 42.5342 -82.3469 261° West 366 421 14,600 -2,040 Descending Cleveland Center
06:57AM 42.5203 -82.4425 259° West 378 435 13,100 -2,100 Descending Cleveland Center
06:58AM 42.5153 -82.4903 262° West 366 421 12,500 -1,320 Descending Cleveland Center
06:58AM 42.4972 -82.5714 253° West 365 420 11,800 -1,020 Descending Cleveland Center
06:59AM 42.4817 -82.6186 246° West 312 359 11,400 -1,200 Descending Cleveland Center
06:59AM 42.4619 -82.6744 244° Southwest 338 389 10,600 -1,620 Descending Cleveland Center
07:00AM 42.4375 -82.7664 250° West 295 339 8,900 -1,740 Descending Cleveland Center
07:01AM 42.4389 -82.8031 273° West 261 300 8,300 -2,040 Descending Cleveland Center
07:01AM 42.4314 -82.8619 260° West 270 311 6,900 -1,980 Descending Cleveland Center
07:02AM 42.4303 -82.9097 268° West 257 296 6,100 -900 Descending Cleveland Center
07:02AM 42.4253 -82.9572 262° West 265 305 6,000 -120 Descending Cleveland Center
07:03AM 42.4242 -83.0106 268° West 247 284 6,000 -540 Level Cleveland Center
07:03AM 42.4150 -83.0469 251° West 252 290 5,500 -1,380 Descending Cleveland Center
07:04AM 42.4033 -83.1028 254° West 247 284 4,600 -1,500 Descending Cleveland Center
07:04AM 42.3964 -83.1361 254° West 252 290 4,000 -600 Descending Cleveland Center
07:05AM 42.3808 -83.1861 247° West 192 221 4,000 -300 Level Cleveland Center
07:06AM 42.3503 -83.2356 230° Southwest 167 192 3,500 -540 Descending Cleveland Center